Fdl, Wisconsin
Current Conditions -  °F | °C
As of 6:53 AM on Friday 24 Oct 2014 (Local Time) from KFLD Reporting Station
Haze Haze  
Wind Chill:   Ceiling: 600
Heat Index:   Visibility: 3mi
Dew Point:   Wind: 3mph
Humidity: 93%   Direction: 230°SW
Pressure: 30.03"   Gusts: NA
Location:  43.7436°N, 88.3886°W
Report Text: KFLD 241153Z AUTO 23003KT 3SM BR OVC006 09/08 A3003 RMK AO2 CIG 003V009 SLP173 70016 T00890078 10094 20089 50001
Loading
Personal Weather Stations






























Interactive Weather Map
Tropical Storm Tracking
New forecast layout! Learn more

10-Day Weather Forecast

Advertisements
Track Severe Weather on mobile